sensor_id;sensor_type;location;lat;lon;timestamp;temperature;humidity
22827;DHT22;11580;52.562;13.418;2023-10-08T00:02:10;15.70;47.50
22827;DHT22;11580;52.562;13.418;2023-10-08T00:04:41;15.60;47.40
22827;DHT22;11580;52.562;13.418;2023-10-08T00:07:10;15.70;47.50
22827;DHT22;11580;52.562;13.418;2023-10-08T00:09:37;15.60;48.00
22827;DHT22;11580;52.562;13.418;2023-10-08T00:12:05;15.60;47.30
22827;DHT22;11580;52.562;13.418;2023-10-08T00:14:33;15.60;47.30
22827;DHT22;11580;52.562;13.418;2023-10-08T00:17:10;15.60;47.40
22827;DHT22;11580;52.562;13.418;2023-10-08T00:19:38;15.60;47.40
22827;DHT22;11580;52.562;13.418;2023-10-08T00:22:07;15.60;47.50
22827;DHT22;11580;52.562;13.418;2023-10-08T00:24:35;15.60;47.50
22827;DHT22;11580;52.562;13.418;2023-10-08T00:27:07;15.60;47.40
22827;DHT22;11580;52.562;13.418;2023-10-08T00:29:35;15.60;47.40
22827;DHT22;11580;52.562;13.418;2023-10-08T00:32:06;15.60;47.30
22827;DHT22;11580;52.562;13.418;2023-10-08T00:34:38;15.60;47.40
22827;DHT22;11580;52.562;13.418;2023-10-08T00:37:10;15.50;47.20
22827;DHT22;11580;52.562;13.418;2023-10-08T00:39:40;15.50;47.30
22827;DHT22;11580;52.562;13.418;2023-10-08T00:42:09;15.50;47.30
22827;DHT22;11580;52.562;13.418;2023-10-08T00:44:38;15.50;47.50
22827;DHT22;11580;52.562;13.418;2023-10-08T00:47:15;15.50;47.50
22827;DHT22;11580;52.562;13.418;2023-10-08T00:49:44;15.50;47.50
22827;DHT22;11580;52.562;13.418;2023-10-08T00:52:22;15.50;47.50
22827;DHT22;11580;52.562;13.418;2023-10-08T00:54:52;15.50;47.70
22827;DHT22;11580;52.562;13.418;2023-10-08T00:57:31;15.50;48.30
22827;DHT22;11580;52.562;13.418;2023-10-08T01:00:02;15.50;47.50
22827;DHT22;11580;52.562;13.418;2023-10-08T01:02:38;15.50;47.40
22827;DHT22;11580;52.562;13.418;2023-10-08T01:05:11;15.50;47.30
22827;DHT22;11580;52.562;13.418;2023-10-08T01:07:46;15.40;47.20
22827;DHT22;11580;52.562;13.418;2023-10-08T01:10:16;15.40;47.20
22827;DHT22;11580;52.562;13.418;2023-10-08T01:12:46;15.40;47.20
22827;DHT22;11580;52.562;13.418;2023-10-08T01:15:29;15.40;47.40
22827;DHT22;11580;52.562;13.418;2023-10-08T01:18:02;15.50;47.50
22827;DHT22;11580;52.562;13.418;2023-10-08T01:20:30;15.40;47.50
22827;DHT22;11580;52.562;13.418;2023-10-08T01:23:04;15.40;47.50
22827;DHT22;11580;52.562;13.418;2023-10-08T01:25:36;15.40;47.50
22827;DHT22;11580;52.562;13.418;2023-10-08T01:28:05;15.40;47.40
22827;DHT22;11580;52.562;13.418;2023-10-08T01:30:41;15.40;47.40
22827;DHT22;11580;52.562;13.418;2023-10-08T01:33:12;15.40;47.60
22827;DHT22;11580;52.562;13.418;2023-10-08T01:35:41;15.40;47.60
22827;DHT22;11580;52.562;13.418;2023-10-08T01:38:10;15.40;47.60
22827;DHT22;11580;52.562;13.418;2023-10-08T01:40:40;15.40;47.70
22827;DHT22;11580;52.562;13.418;2023-10-08T01:43:08;15.40;47.60
22827;DHT22;11580;52.562;13.418;2023-10-08T01:45:37;15.40;47.40
22827;DHT22;11580;52.562;13.418;2023-10-08T01:48:07;15.40;47.40
22827;DHT22;11580;52.562;13.418;2023-10-08T01:50:36;15.40;47.40
22827;DHT22;11580;52.562;13.418;2023-10-08T01:53:04;15.40;47.60
22827;DHT22;11580;52.562;13.418;2023-10-08T01:55:36;15.30;47.40
22827;DHT22;11580;52.562;13.418;2023-10-08T01:58:15;15.30;47.40
22827;DHT22;11580;52.562;13.418;2023-10-08T02:00:44;15.30;48.00
22827;DHT22;11580;52.562;13.418;2023-10-08T02:03:14;15.30;47.40
22827;DHT22;11580;52.562;13.418;2023-10-08T02:05:42;15.30;47.40
22827;DHT22;11580;52.562;13.418;2023-10-08T02:08:10;15.30;47.30
22827;DHT22;11580;52.562;13.418;2023-10-08T02:10:41;15.30;47.30
22827;DHT22;11580;52.562;13.418;2023-10-08T02:13:13;15.30;47.40
22827;DHT22;11580;52.562;13.418;2023-10-08T02:15:43;15.30;47.30
22827;DHT22;11580;52.562;13.418;2023-10-08T02:18:13;15.30;47.50
22827;DHT22;11580;52.562;13.418;2023-10-08T02:20:40;15.30;47.50
22827;DHT22;11580;52.562;13.418;2023-10-08T02:23:09;15.30;47.40
22827;DHT22;11580;52.562;13.418;2023-10-08T02:25:39;15.30;47.60
22827;DHT22;11580;52.562;13.418;2023-10-08T02:28:07;15.30;47.70
22827;DHT22;11580;52.562;13.418;2023-10-08T02:30:36;15.30;47.60
22827;DHT22;11580;52.562;13.418;2023-10-08T02:33:05;15.30;47.70
22827;DHT22;11580;52.562;13.418;2023-10-08T02:35:40;15.30;47.60
22827;DHT22;11580;52.562;13.418;2023-10-08T02:38:09;15.30;47.50
22827;DHT22;11580;52.562;13.418;2023-10-08T02:40:40;15.30;47.60
22827;DHT22;11580;52.562;13.418;2023-10-08T02:43:10;15.30;47.50
22827;DHT22;11580;52.562;13.418;2023-10-08T02:45:39;15.30;47.40
22827;DHT22;11580;52.562;13.418;2023-10-08T02:48:07;15.30;47.40
22827;DHT22;11580;52.562;13.418;2023-10-08T02:50:38;15.30;47.40
22827;DHT22;11580;52.562;13.418;2023-10-08T02:53:06;15.30;47.30
22827;DHT22;11580;52.562;13.418;2023-10-08T02:55:37;15.30;48.10
22827;DHT22;11580;52.562;13.418;2023-10-08T02:58:11;15.30;47.40
22827;DHT22;11580;52.562;13.418;2023-10-08T03:00:41;15.30;47.30
22827;DHT22;11580;52.562;13.418;2023-10-08T03:03:08;15.30;47.20
22827;DHT22;11580;52.562;13.418;2023-10-08T03:05:43;15.30;47.20
22827;DHT22;11580;52.562;13.418;2023-10-08T03:08:12;15.30;48.00
22827;DHT22;11580;52.562;13.418;2023-10-08T03:10:45;15.30;47.30
22827;DHT22;11580;52.562;13.418;2023-10-08T03:13:15;15.30;47.40
22827;DHT22;11580;52.562;13.418;2023-10-08T03:15:45;15.30;47.40
22827;DHT22;11580;52.562;13.418;2023-10-08T03:18:33;15.20;47.20
22827;DHT22;11580;52.562;13.418;2023-10-08T03:21:03;15.30;47.20
22827;DHT22;11580;52.562;13.418;2023-10-08T03:23:32;15.20;47.80
22827;DHT22;11580;52.562;13.418;2023-10-08T03:26:09;15.20;47.80
22827;DHT22;11580;52.562;13.418;2023-10-08T03:28:39;15.20;47.10
22827;DHT22;11580;52.562;13.418;2023-10-08T03:31:07;15.20;47.10
22827;DHT22;11580;52.562;13.418;2023-10-08T03:33:42;15.20;47.70
22827;DHT22;11580;52.562;13.418;2023-10-08T03:36:14;15.20;46.90
22827;DHT22;11580;52.562;13.418;2023-10-08T03:38:47;15.20;46.90
22827;DHT22;11580;52.562;13.418;2023-10-08T03:41:21;15.10;46.70
22827;DHT22;11580;52.562;13.418;2023-10-08T03:43:54;15.10;46.80
22827;DHT22;11580;52.562;13.418;2023-10-08T03:46:28;15.10;46.60
22827;DHT22;11580;52.562;13.418;2023-10-08T03:48:56;15.10;46.40
22827;DHT22;11580;52.562;13.418;2023-10-08T03:51:30;15.10;46.60
22827;DHT22;11580;52.562;13.418;2023-10-08T03:54:05;15.00;46.70
22827;DHT22;11580;52.562;13.418;2023-10-08T03:56:46;15.00;47.00
22827;DHT22;11580;52.562;13.418;2023-10-08T03:59:15;15.00;47.00
22827;DHT22;11580;52.562;13.418;2023-10-08T04:01:56;15.00;47.00
22827;DHT22;11580;52.562;13.418;2023-10-08T04:04:26;15.00;46.90
22827;DHT22;11580;52.562;13.418;2023-10-08T04:07:15;15.00;46.70
22827;DHT22;11580;52.562;13.418;2023-10-08T04:09:55;14.90;47.00
22827;DHT22;11580;52.562;13.418;2023-10-08T04:12:43;14.90;46.00
22827;DHT22;11580;52.562;13.418;2023-10-08T04:15:15;14.90;45.80
22827;DHT22;11580;52.562;13.418;2023-10-08T04:17:43;14.80;45.70
22827;DHT22;11580;52.562;13.418;2023-10-08T04:20:12;14.80;45.80
22827;DHT22;11580;52.562;13.418;2023-10-08T04:22:56;14.70;46.60
22827;DHT22;11580;52.562;13.418;2023-10-08T04:25:25;14.70;46.20
22827;DHT22;11580;52.562;13.418;2023-10-08T04:27:54;14.70;46.50
22827;DHT22;11580;52.562;13.418;2023-10-08T04:30:26;14.70;46.50
22827;DHT22;11580;52.562;13.418;2023-10-08T04:32:59;14.60;46.50
22827;DHT22;11580;52.562;13.418;2023-10-08T04:35:32;14.60;46.60
22827;DHT22;11580;52.562;13.418;2023-10-08T04:38:03;14.60;46.60
22827;DHT22;11580;52.562;13.418;2023-10-08T04:40:34;14.60;46.40
22827;DHT22;11580;52.562;13.418;2023-10-08T04:43:07;14.60;45.90
22827;DHT22;11580;52.562;13.418;2023-10-08T04:45:37;14.60;45.60
22827;DHT22;11580;52.562;13.418;2023-10-08T04:48:05;14.60;45.60
22827;DHT22;11580;52.562;13.418;2023-10-08T04:50:36;14.50;45.30
22827;DHT22;11580;52.562;13.418;2023-10-08T04:53:03;14.50;45.30
22827;DHT22;11580;52.562;13.418;2023-10-08T04:55:34;14.40;45.10
22827;DHT22;11580;52.562;13.418;2023-10-08T04:58:07;14.30;45.00
22827;DHT22;11580;52.562;13.418;2023-10-08T05:00:46;14.40;45.10
22827;DHT22;11580;52.562;13.418;2023-10-08T05:03:20;14.30;45.80
22827;DHT22;11580;52.562;13.418;2023-10-08T05:05:49;14.20;45.00
22827;DHT22;11580;52.562;13.418;2023-10-08T05:08:33;14.20;45.00
22827;DHT22;11580;52.562;13.418;2023-10-08T05:11:13;14.10;45.00
22827;DHT22;11580;52.562;13.418;2023-10-08T05:13:50;14.00;45.00
22827;DHT22;11580;52.562;13.418;2023-10-08T05:16:32;14.00;45.00
22827;DHT22;11580;52.562;13.418;2023-10-08T05:19:09;14.00;45.90
22827;DHT22;11580;52.562;13.418;2023-10-08T05:21:53;13.90;45.10
22827;DHT22;11580;52.562;13.418;2023-10-08T05:24:44;13.90;45.20
22827;DHT22;11580;52.562;13.418;2023-10-08T05:27:31;13.80;45.20
22827;DHT22;11580;52.562;13.418;2023-10-08T05:30:24;13.80;46.00
22827;DHT22;11580;52.562;13.418;2023-10-08T05:32:56;13.80;45.40
22827;DHT22;11580;52.562;13.418;2023-10-08T05:35:39;13.80;45.50
22827;DHT22;11580;52.562;13.418;2023-10-08T05:38:17;13.80;45.50
22827;DHT22;11580;52.562;13.418;2023-10-08T05:41:05;13.80;45.50
22827;DHT22;11580;52.562;13.418;2023-10-08T05:43:53;13.70;45.50
22827;DHT22;11580;52.562;13.418;2023-10-08T05:46:38;13.70;45.60
22827;DHT22;11580;52.562;13.418;2023-10-08T05:49:51;13.70;45.80
22827;DHT22;11580;52.562;13.418;2023-10-08T05:52:40;13.70;46.30
22827;DHT22;11580;52.562;13.418;2023-10-08T05:55:28;13.70;46.50
22827;DHT22;11580;52.562;13.418;2023-10-08T05:58:02;13.70;46.90
22827;DHT22;11580;52.562;13.418;2023-10-08T06:00:40;13.70;47.00
22827;DHT22;11580;52.562;13.418;2023-10-08T06:03:30;13.80;46.80
22827;DHT22;11580;52.562;13.418;2023-10-08T06:06:05;13.80;46.50
22827;DHT22;11580;52.562;13.418;2023-10-08T06:09:03;13.90;46.60
22827;DHT22;11580;52.562;13.418;2023-10-08T06:11:47;13.90;46.40
22827;DHT22;11580;52.562;13.418;2023-10-08T06:14:35;13.80;46.20
22827;DHT22;11580;52.562;13.418;2023-10-08T06:17:20;13.90;46.20
22827;DHT22;11580;52.562;13.418;2023-10-08T06:20:16;14.00;46.40
22827;DHT22;11580;52.562;13.418;2023-10-08T06:22:52;13.90;46.70
22827;DHT22;11580;52.562;13.418;2023-10-08T06:25:26;13.90;47.60
22827;DHT22;11580;52.562;13.418;2023-10-08T06:27:53;14.00;48.30
22827;DHT22;11580;52.562;13.418;2023-10-08T06:30:23;14.00;48.60
22827;DHT22;11580;52.562;13.418;2023-10-08T06:32:55;14.10;48.70
22827;DHT22;11580;52.562;13.418;2023-10-08T06:35:23;14.20;48.90
22827;DHT22;11580;52.562;13.418;2023-10-08T06:37:55;14.20;48.50
22827;DHT22;11580;52.562;13.418;2023-10-08T06:40:25;14.30;48.30
22827;DHT22;11580;52.562;13.418;2023-10-08T06:43:08;14.40;48.70
22827;DHT22;11580;52.562;13.418;2023-10-08T06:45:41;14.40;47.60
22827;DHT22;11580;52.562;13.418;2023-10-08T06:48:09;14.50;47.50
22827;DHT22;11580;52.562;13.418;2023-10-08T06:50:44;14.50;47.20
22827;DHT22;11580;52.562;13.418;2023-10-08T06:53:13;14.50;47.00
22827;DHT22;11580;52.562;13.418;2023-10-08T06:55:41;14.50;47.00
22827;DHT22;11580;52.562;13.418;2023-10-08T06:58:09;14.50;46.90
22827;DHT22;11580;52.562;13.418;2023-10-08T07:00:37;14.50;46.70
22827;DHT22;11580;52.562;13.418;2023-10-08T07:03:06;14.50;46.70
22827;DHT22;11580;52.562;13.418;2023-10-08T07:05:40;14.50;46.70
22827;DHT22;11580;52.562;13.418;2023-10-08T07:08:10;14.50;46.70
22827;DHT22;11580;52.562;13.418;2023-10-08T07:10:40;14.50;46.70
22827;DHT22;11580;52.562;13.418;2023-10-08T07:13:08;14.50;46.80
22827;DHT22;11580;52.562;13.418;2023-10-08T07:15:36;14.50;46.80
22827;DHT22;11580;52.562;13.418;2023-10-08T07:18:06;14.50;46.80
22827;DHT22;11580;52.562;13.418;2023-10-08T07:20:39;14.50;46.80
22827;DHT22;11580;52.562;13.418;2023-10-08T07:23:08;14.40;46.70
22827;DHT22;11580;52.562;13.418;2023-10-08T07:25:46;14.50;46.90
22827;DHT22;11580;52.562;13.418;2023-10-08T07:28:23;14.50;47.00
22827;DHT22;11580;52.562;13.418;2023-10-08T07:30:51;14.50;47.10
22827;DHT22;11580;52.562;13.418;2023-10-08T07:33:19;14.50;47.20
22827;DHT22;11580;52.562;13.418;2023-10-08T07:35:51;14.50;47.20
22827;DHT22;11580;52.562;13.418;2023-10-08T07:38:26;14.50;47.30
22827;DHT22;11580;52.562;13.418;2023-10-08T07:40:57;14.50;47.30
22827;DHT22;11580;52.562;13.418;2023-10-08T07:43:26;14.50;47.40
22827;DHT22;11580;52.562;13.418;2023-10-08T07:45:58;14.60;47.50
22827;DHT22;11580;52.562;13.418;2023-10-08T07:48:25;14.60;47.50
22827;DHT22;11580;52.562;13.418;2023-10-08T07:50:56;14.60;47.60
22827;DHT22;11580;52.562;13.418;2023-10-08T07:53:24;14.70;47.70
22827;DHT22;11580;52.562;13.418;2023-10-08T07:56:05;14.70;48.50
22827;DHT22;11580;52.562;13.418;2023-10-08T07:58:34;14.70;47.80
22827;DHT22;11580;52.562;13.418;2023-10-08T08:01:03;14.80;47.90
22827;DHT22;11580;52.562;13.418;2023-10-08T08:03:33;14.80;47.80
22827;DHT22;11580;52.562;13.418;2023-10-08T08:06:03;14.80;48.60
22827;DHT22;11580;52.562;13.418;2023-10-08T08:08:33;14.90;47.90
22827;DHT22;11580;52.562;13.418;2023-10-08T08:11:02;14.90;47.80
22827;DHT22;11580;52.562;13.418;2023-10-08T08:13:33;14.90;47.80
22827;DHT22;11580;52.562;13.418;2023-10-08T08:16:01;14.90;47.90
22827;DHT22;11580;52.562;13.418;2023-10-08T08:18:42;14.90;47.90
22827;DHT22;11580;52.562;13.418;2023-10-08T08:21:10;15.00;48.00
22827;DHT22;11580;52.562;13.418;2023-10-08T08:23:41;15.00;47.90
22827;DHT22;11580;52.562;13.418;2023-10-08T08:26:15;15.10;48.00
22827;DHT22;11580;52.562;13.418;2023-10-08T08:28:54;15.10;48.60
22827;DHT22;11580;52.562;13.418;2023-10-08T08:31:23;15.10;47.80
22827;DHT22;11580;52.562;13.418;2023-10-08T08:33:51;15.10;48.70
22827;DHT22;11580;52.562;13.418;2023-10-08T08:36:23;15.20;48.20
22827;DHT22;11580;52.562;13.418;2023-10-08T08:38:50;15.20;48.20
22827;DHT22;11580;52.562;13.418;2023-10-08T08:41:19;15.20;48.30
22827;DHT22;11580;52.562;13.418;2023-10-08T08:43:50;15.30;48.10
22827;DHT22;11580;52.562;13.418;2023-10-08T08:46:32;15.30;48.30
22827;DHT22;11580;52.562;13.418;2023-10-08T08:49:02;15.30;48.00
22827;DHT22;11580;52.562;13.418;2023-10-08T08:51:31;15.40;48.20
22827;DHT22;11580;52.562;13.418;2023-10-08T08:53:59;15.40;48.40
22827;DHT22;11580;52.562;13.418;2023-10-08T08:56:33;15.40;48.50
22827;DHT22;11580;52.562;13.418;2023-10-08T08:59:02;15.50;48.50
22827;DHT22;11580;52.562;13.418;2023-10-08T09:01:31;15.50;48.50
22827;DHT22;11580;52.562;13.418;2023-10-08T09:03:59;15.60;48.60
22827;DHT22;11580;52.562;13.418;2023-10-08T09:06:30;15.60;48.60
22827;DHT22;11580;52.562;13.418;2023-10-08T09:08:59;15.70;48.60
22827;DHT22;11580;52.562;13.418;2023-10-08T09:11:41;15.70;48.50
22827;DHT22;11580;52.562;13.418;2023-10-08T09:14:09;15.80;48.50
22827;DHT22;11580;52.562;13.418;2023-10-08T09:16:37;15.80;48.60
22827;DHT22;11580;52.562;13.418;2023-10-08T09:19:06;15.80;48.60
22827;DHT22;11580;52.562;13.418;2023-10-08T09:21:37;15.90;48.70
22827;DHT22;11580;52.562;13.418;2023-10-08T09:24:05;15.90;48.50
22827;DHT22;11580;52.562;13.418;2023-10-08T09:26:37;16.00;48.30
22827;DHT22;11580;52.562;13.418;2023-10-08T09:29:07;16.00;48.20
22827;DHT22;11580;52.562;13.418;2023-10-08T09:31:37;16.00;48.00
22827;DHT22;11580;52.562;13.418;2023-10-08T09:34:04;16.00;48.90
22827;DHT22;11580;52.562;13.418;2023-10-08T09:36:32;16.00;48.20
22827;DHT22;11580;52.562;13.418;2023-10-08T09:39:02;16.10;48.50
22827;DHT22;11580;52.562;13.418;2023-10-08T09:41:32;16.10;48.40
22827;DHT22;11580;52.562;13.418;2023-10-08T09:44:02;16.20;49.10
22827;DHT22;11580;52.562;13.418;2023-10-08T09:46:38;16.20;48.40
22827;DHT22;11580;52.562;13.418;2023-10-08T09:49:09;16.20;48.10
22827;DHT22;11580;52.562;13.418;2023-10-08T09:51:40;16.30;48.10
22827;DHT22;11580;52.562;13.418;2023-10-08T09:54:11;16.30;48.60
22827;DHT22;11580;52.562;13.418;2023-10-08T09:56:46;16.30;48.40
22827;DHT22;11580;52.562;13.418;2023-10-08T09:59:14;16.30;48.10
22827;DHT22;11580;52.562;13.418;2023-10-08T10:01:44;16.30;48.80
22827;DHT22;11580;52.562;13.418;2023-10-08T10:04:21;16.40;48.20
22827;DHT22;11580;52.562;13.418;2023-10-08T10:06:50;16.40;48.60
22827;DHT22;11580;52.562;13.418;2023-10-08T10:09:20;16.40;48.60
22827;DHT22;11580;52.562;13.418;2023-10-08T10:11:50;16.50;48.10
22827;DHT22;11580;52.562;13.418;2023-10-08T10:14:19;16.60;48.80
22827;DHT22;11580;52.562;13.418;2023-10-08T10:17:08;16.60;47.80
22827;DHT22;11580;52.562;13.418;2023-10-08T10:19:36;16.60;45.90
22827;DHT22;11580;52.562;13.418;2023-10-08T10:22:12;16.60;47.10
22827;DHT22;11580;52.562;13.418;2023-10-08T10:24:42;16.70;46.80
22827;DHT22;11580;52.562;13.418;2023-10-08T10:27:15;16.70;46.60
22827;DHT22;11580;52.562;13.418;2023-10-08T10:29:43;16.70;45.20
22827;DHT22;11580;52.562;13.418;2023-10-08T10:32:14;16.80;46.80
22827;DHT22;11580;52.562;13.418;2023-10-08T10:34:43;16.80;45.10
22827;DHT22;11580;52.562;13.418;2023-10-08T10:37:13;16.80;45.90
22827;DHT22;11580;52.562;13.418;2023-10-08T10:39:55;16.90;45.10
22827;DHT22;11580;52.562;13.418;2023-10-08T10:42:25;17.00;42.10
22827;DHT22;11580;52.562;13.418;2023-10-08T10:44:54;17.00;44.50
22827;DHT22;11580;52.562;13.418;2023-10-08T10:47:25;17.00;43.20
22827;DHT22;11580;52.562;13.418;2023-10-08T10:50:08;17.00;43.30
22827;DHT22;11580;52.562;13.418;2023-10-08T10:53:02;17.10;43.70
22827;DHT22;11580;52.562;13.418;2023-10-08T10:55:36;17.10;43.40
22827;DHT22;11580;52.562;13.418;2023-10-08T10:58:05;17.20;43.10
22827;DHT22;11580;52.562;13.418;2023-10-08T11:00:38;17.20;43.10
22827;DHT22;11580;52.562;13.418;2023-10-08T11:03:36;17.30;42.10
22827;DHT22;11580;52.562;13.418;2023-10-08T11:06:03;17.30;40.30
22827;DHT22;11580;52.562;13.418;2023-10-08T11:08:41;17.40;41.20
22827;DHT22;11580;52.562;13.418;2023-10-08T11:11:11;17.40;40.60
22827;DHT22;11580;52.562;13.418;2023-10-08T11:13:43;17.40;40.50
22827;DHT22;11580;52.562;13.418;2023-10-08T11:16:17;17.40;40.20
22827;DHT22;11580;52.562;13.418;2023-10-08T11:18:50;17.50;40.40
22827;DHT22;11580;52.562;13.418;2023-10-08T11:21:23;17.50;38.50
22827;DHT22;11580;52.562;13.418;2023-10-08T11:23:52;17.60;38.30
22827;DHT22;11580;52.562;13.418;2023-10-08T11:26:22;17.60;37.90
22827;DHT22;11580;52.562;13.418;2023-10-08T11:28:58;17.60;37.80
22827;DHT22;11580;52.562;13.418;2023-10-08T11:31:29;17.60;38.10
22827;DHT22;11580;52.562;13.418;2023-10-08T11:34:02;17.70;38.90
22827;DHT22;11580;52.562;13.418;2023-10-08T11:36:36;17.70;36.50
22827;DHT22;11580;52.562;13.418;2023-10-08T11:39:14;17.80;37.50
22827;DHT22;11580;52.562;13.418;2023-10-08T11:41:55;17.90;38.10
22827;DHT22;11580;52.562;13.418;2023-10-08T11:44:23;17.90;32.90
22827;DHT22;11580;52.562;13.418;2023-10-08T11:46:56;18.00;37.40
22827;DHT22;11580;52.562;13.418;2023-10-08T11:49:31;18.00;35.70
22827;DHT22;11580;52.562;13.418;2023-10-08T11:52:02;18.10;35.00
22827;DHT22;11580;52.562;13.418;2023-10-08T11:54:30;18.10;35.80
22827;DHT22;11580;52.562;13.418;2023-10-08T11:56:59;18.10;36.00
22827;DHT22;11580;52.562;13.418;2023-10-08T11:59:28;18.20;35.80
22827;DHT22;11580;52.562;13.418;2023-10-08T12:01:57;18.20;36.70
22827;DHT22;11580;52.562;13.418;2023-10-08T12:04:24;18.30;36.30
22827;DHT22;11580;52.562;13.418;2023-10-08T12:06:56;18.40;36.10
22827;DHT22;11580;52.562;13.418;2023-10-08T12:09:27;18.50;35.30
22827;DHT22;11580;52.562;13.418;2023-10-08T12:11:54;18.70;36.10
22827;DHT22;11580;52.562;13.418;2023-10-08T12:14:23;18.80;36.40
22827;DHT22;11580;52.562;13.418;2023-10-08T12:16:55;19.00;35.20
22827;DHT22;11580;52.562;13.418;2023-10-08T12:19:25;19.20;35.00
22827;DHT22;11580;52.562;13.418;2023-10-08T12:21:52;19.30;34.70
22827;DHT22;11580;52.562;13.418;2023-10-08T12:24:21;19.50;34.30
22827;DHT22;11580;52.562;13.418;2023-10-08T12:26:48;19.60;31.70
22827;DHT22;11580;52.562;13.418;2023-10-08T12:29:15;19.70;31.80
22827;DHT22;11580;52.562;13.418;2023-10-08T12:31:44;19.70;31.20
22827;DHT22;11580;52.562;13.418;2023-10-08T12:34:13;19.80;30.10
22827;DHT22;11580;52.562;13.418;2023-10-08T12:36:40;19.80;29.80
22827;DHT22;11580;52.562;13.418;2023-10-08T12:39:08;19.90;29.80
22827;DHT22;11580;52.562;13.418;2023-10-08T12:41:41;19.90;28.90
22827;DHT22;11580;52.562;13.418;2023-10-08T12:44:09;19.90;28.20
22827;DHT22;11580;52.562;13.418;2023-10-08T12:46:37;19.90;29.00
22827;DHT22;11580;52.562;13.418;2023-10-08T12:49:05;19.80;28.70
22827;DHT22;11580;52.562;13.418;2023-10-08T12:51:32;19.80;28.40
22827;DHT22;11580;52.562;13.418;2023-10-08T12:54:01;19.80;28.20
22827;DHT22;11580;52.562;13.418;2023-10-08T12:56:32;19.80;28.00
22827;DHT22;11580;52.562;13.418;2023-10-08T12:59:06;19.80;27.70
22827;DHT22;11580;52.562;13.418;2023-10-08T13:01:34;19.80;27.00
22827;DHT22;11580;52.562;13.418;2023-10-08T13:04:02;19.70;26.50
22827;DHT22;11580;52.562;13.418;2023-10-08T13:06:34;19.80;26.50
22827;DHT22;11580;52.562;13.418;2023-10-08T13:09:03;19.80;26.20
22827;DHT22;11580;52.562;13.418;2023-10-08T13:11:38;19.80;26.70
22827;DHT22;11580;52.562;13.418;2023-10-08T13:14:07;19.90;26.70
22827;DHT22;11580;52.562;13.418;2023-10-08T13:16:34;19.90;25.50
22827;DHT22;11580;52.562;13.418;2023-10-08T13:19:03;19.90;26.10
22827;DHT22;11580;52.562;13.418;2023-10-08T13:21:33;19.80;25.30
22827;DHT22;11580;52.562;13.418;2023-10-08T13:24:03;19.80;25.20
22827;DHT22;11580;52.562;13.418;2023-10-08T13:26:34;19.70;25.20
22827;DHT22;11580;52.562;13.418;2023-10-08T13:29:04;19.60;26.00
22827;DHT22;11580;52.562;13.418;2023-10-08T13:31:36;19.50;25.10
22827;DHT22;11580;52.562;13.418;2023-10-08T13:34:03;19.40;24.50
22827;DHT22;11580;52.562;13.418;2023-10-08T13:36:34;19.40;25.00
22827;DHT22;11580;52.562;13.418;2023-10-08T13:39:04;19.30;25.40
22827;DHT22;11580;52.562;13.418;2023-10-08T13:41:35;19.30;24.90
22827;DHT22;11580;52.562;13.418;2023-10-08T13:44:04;19.20;25.40
22827;DHT22;11580;52.562;13.418;2023-10-08T13:46:32;19.10;24.80
22827;DHT22;11580;52.562;13.418;2023-10-08T13:49:03;19.10;24.80
22827;DHT22;11580;52.562;13.418;2023-10-08T13:51:31;19.00;24.50
22827;DHT22;11580;52.562;13.418;2023-10-08T13:54:00;18.90;24.60
22827;DHT22;11580;52.562;13.418;2023-10-08T13:56:32;18.80;24.60
22827;DHT22;11580;52.562;13.418;2023-10-08T13:59:04;18.70;24.50
22827;DHT22;11580;52.562;13.418;2023-10-08T14:01:38;18.60;24.40
22827;DHT22;11580;52.562;13.418;2023-10-08T14:04:13;18.50;24.90
22827;DHT22;11580;52.562;13.418;2023-10-08T14:06:43;18.40;24.30
22827;DHT22;11580;52.562;13.418;2023-10-08T14:09:14;18.40;25.10
22827;DHT22;11580;52.562;13.418;2023-10-08T14:11:46;18.30;25.10
22827;DHT22;11580;52.562;13.418;2023-10-08T14:14:15;18.30;25.20
22827;DHT22;11580;52.562;13.418;2023-10-08T14:16:45;18.30;25.30
22827;DHT22;11580;52.562;13.418;2023-10-08T14:19:19;18.30;25.40
22827;DHT22;11580;52.562;13.418;2023-10-08T14:21:54;18.30;24.70
22827;DHT22;11580;52.562;13.418;2023-10-08T14:24:26;18.30;25.30
22827;DHT22;11580;52.562;13.418;2023-10-08T14:26:58;18.40;25.10
22827;DHT22;11580;52.562;13.418;2023-10-08T14:29:28;18.40;24.90
22827;DHT22;11580;52.562;13.418;2023-10-08T14:31:55;18.40;24.80
22827;DHT22;11580;52.562;13.418;2023-10-08T14:34:26;18.40;24.90
22827;DHT22;11580;52.562;13.418;2023-10-08T14:37:16;18.40;24.60
22827;DHT22;11580;52.562;13.418;2023-10-08T14:40:01;18.40;24.50
22827;DHT22;11580;52.562;13.418;2023-10-08T14:42:46;18.40;24.30
22827;DHT22;11580;52.562;13.418;2023-10-08T14:45:22;18.30;24.70
22827;DHT22;11580;52.562;13.418;2023-10-08T14:47:53;18.30;24.50
22827;DHT22;11580;52.562;13.418;2023-10-08T14:50:23;18.30;24.30
22827;DHT22;11580;52.562;13.418;2023-10-08T14:52:53;18.30;24.00
22827;DHT22;11580;52.562;13.418;2023-10-08T14:55:21;18.30;24.20
22827;DHT22;11580;52.562;13.418;2023-10-08T14:57:49;18.30;24.20
22827;DHT22;11580;52.562;13.418;2023-10-08T15:00:18;18.30;24.20
22827;DHT22;11580;52.562;13.418;2023-10-08T15:02:51;18.30;23.80
22827;DHT22;11580;52.562;13.418;2023-10-08T15:05:21;18.30;23.90
22827;DHT22;11580;52.562;13.418;2023-10-08T15:07:49;18.20;23.80
22827;DHT22;11580;52.562;13.418;2023-10-08T15:10:18;18.30;24.20
22827;DHT22;11580;52.562;13.418;2023-10-08T15:12:47;18.20;23.90
22827;DHT22;11580;52.562;13.418;2023-10-08T15:15:15;18.30;24.20
22827;DHT22;11580;52.562;13.418;2023-10-08T15:17:43;18.20;23.70
22827;DHT22;11580;52.562;13.418;2023-10-08T15:20:14;18.30;23.90
22827;DHT22;11580;52.562;13.418;2023-10-08T15:22:45;18.30;24.00
22827;DHT22;11580;52.562;13.418;2023-10-08T15:25:16;18.30;23.60
22827;DHT22;11580;52.562;13.418;2023-10-08T15:27:45;18.30;24.20
22827;DHT22;11580;52.562;13.418;2023-10-08T15:30:15;18.30;23.90
22827;DHT22;11580;52.562;13.418;2023-10-08T15:32:45;18.30;23.30
22827;DHT22;11580;52.562;13.418;2023-10-08T15:35:15;18.30;23.60
22827;DHT22;11580;52.562;13.418;2023-10-08T15:37:47;18.30;23.00
22827;DHT22;11580;52.562;13.418;2023-10-08T15:40:14;18.30;22.70
22827;DHT22;11580;52.562;13.418;2023-10-08T15:42:48;18.20;23.00
22827;DHT22;11580;52.562;13.418;2023-10-08T15:45:17;18.20;22.20
22827;DHT22;11580;52.562;13.418;2023-10-08T15:47:44;18.20;23.20